createdAt,value
2018-06-02T00:00:24.256Z,16.12
2018-06-02T00:01:24.247Z,16.09
2018-06-02T00:02:24.239Z,16.07
2018-06-02T00:03:24.232Z,16.04
2018-06-02T00:04:24.222Z,16.01
2018-06-02T00:05:24.209Z,16.08
2018-06-02T00:06:24.201Z,16.07
2018-06-02T00:07:24.194Z,16.01
2018-06-02T00:08:24.181Z,16.02
2018-06-02T00:09:24.173Z,16.07
2018-06-02T00:10:24.162Z,16.00
2018-06-02T00:11:24.224Z,16.05
2018-06-02T00:12:24.148Z,16.04
2018-06-02T00:13:24.138Z,16.02
2018-06-02T00:14:24.130Z,16.02
2018-06-02T00:15:24.120Z,16.11
2018-06-02T00:16:24.109Z,16.11
2018-06-02T00:17:24.100Z,16.08
2018-06-02T00:18:24.091Z,16.20
2018-06-02T00:19:24.089Z,16.02
2018-06-02T00:20:24.072Z,16.05
2018-06-02T00:21:24.063Z,16.00
2018-06-02T00:22:24.058Z,16.09
2018-06-02T00:23:24.048Z,16.02
2018-06-02T00:24:24.035Z,16.11
2018-06-02T00:25:24.030Z,16.07
2018-06-02T00:26:24.019Z,16.01
2018-06-02T00:27:24.007Z,15.97
2018-06-02T00:28:23.999Z,15.87
2018-06-02T00:29:23.989Z,15.84
2018-06-02T00:30:23.979Z,15.74
2018-06-02T00:31:23.981Z,15.57
2018-06-02T00:32:23.965Z,15.57
2018-06-02T00:33:23.956Z,15.60
2018-06-02T00:34:23.945Z,15.56
2018-06-02T00:35:23.935Z,15.56
2018-06-02T00:36:23.925Z,15.54
2018-06-02T00:37:23.920Z,15.54
2018-06-02T00:38:23.907Z,15.56
2018-06-02T00:39:23.899Z,15.57
2018-06-02T00:40:23.899Z,15.65
2018-06-02T00:41:23.893Z,15.56
2018-06-02T00:42:23.867Z,15.68
2018-06-02T00:43:23.868Z,15.56
2018-06-02T00:44:23.852Z,15.65
2018-06-02T00:45:23.846Z,15.62
2018-06-02T00:46:23.844Z,15.60
2018-06-02T00:47:23.827Z,15.67
2018-06-02T00:48:23.812Z,15.64
2018-06-02T00:49:23.804Z,15.62
2018-06-02T00:50:23.796Z,15.65
2018-06-02T00:51:23.789Z,15.69
2018-06-02T00:52:23.777Z,15.65
2018-06-02T00:53:23.773Z,15.68
2018-06-02T00:54:23.765Z,15.68
2018-06-02T00:55:23.756Z,15.68
2018-06-02T00:56:23.740Z,15.64
2018-06-02T00:57:23.730Z,15.68
2018-06-02T00:58:23.720Z,15.68
2018-06-02T00:59:23.714Z,15.60
2018-06-02T01:00:23.703Z,15.65
2018-06-02T01:01:23.693Z,15.71
2018-06-02T01:02:23.687Z,15.72
2018-06-02T01:03:23.674Z,15.67
2018-06-02T01:04:23.670Z,15.72
2018-06-02T01:05:23.656Z,15.67
2018-06-02T01:06:23.649Z,15.64
2018-06-02T01:07:23.638Z,15.64
2018-06-02T01:08:23.631Z,15.68
2018-06-02T01:09:23.626Z,15.60
2018-06-02T01:10:23.612Z,15.67
2018-06-02T01:11:23.601Z,15.69
2018-06-02T01:12:23.588Z,15.64
2018-06-02T01:13:23.584Z,15.51
2018-06-02T01:14:23.575Z,15.59
2018-06-02T01:15:23.566Z,15.56
2018-06-02T01:16:23.552Z,15.64
2018-06-02T01:17:23.538Z,15.56
2018-06-02T01:18:23.535Z,15.54
2018-06-02T01:19:23.529Z,15.59
2018-06-02T01:20:23.519Z,15.64
2018-06-02T01:21:23.513Z,15.60
2018-06-02T01:22:23.499Z,15.67
2018-06-02T01:23:23.495Z,15.60
2018-06-02T01:24:23.482Z,15.65
2018-06-02T01:25:23.465Z,15.65
2018-06-02T01:26:23.459Z,15.65
2018-06-02T01:27:23.452Z,15.60
2018-06-02T01:28:23.443Z,15.53
2018-06-02T01:29:23.439Z,15.64
2018-06-02T01:30:23.423Z,15.60
2018-06-02T01:31:23.418Z,15.49
2018-06-02T01:32:23.405Z,15.56
2018-06-02T01:33:23.398Z,15.57
2018-06-02T01:34:23.390Z,15.56
2018-06-02T01:35:23.381Z,15.57
2018-06-02T01:36:23.369Z,15.54
2018-06-02T01:37:23.359Z,15.56
2018-06-02T01:38:23.349Z,15.59
2018-06-02T01:39:23.340Z,15.62
2018-06-02T01:40:23.329Z,15.51
2018-06-02T01:41:23.321Z,15.46
2018-06-02T01:42:23.317Z,15.54
2018-06-02T01:43:23.307Z,15.53
2018-06-02T01:44:23.293Z,15.62
2018-06-02T01:45:23.282Z,15.56
2018-06-02T01:46:23.273Z,15.50
2018-06-02T01:47:23.263Z,15.59
2018-06-02T01:48:23.255Z,15.53
2018-06-02T01:49:23.246Z,15.47
2018-06-02T01:50:23.237Z,15.49
2018-06-02T01:51:23.227Z,15.34
2018-06-02T01:52:23.212Z,15.27
2018-06-02T01:53:23.212Z,15.23
2018-06-02T01:54:23.198Z,15.20
2018-06-02T01:55:23.189Z,15.16
2018-06-02T01:56:23.181Z,15.10
2018-06-02T01:57:23.171Z,15.14
2018-06-02T01:58:23.167Z,15.09
2018-06-02T01:59:23.154Z,15.06
2018-06-02T02:00:23.139Z,15.03
2018-06-02T02:01:23.131Z,15.09
2018-06-02T02:02:23.121Z,15.02
2018-06-02T02:03:23.119Z,15.02
2018-06-02T02:04:23.101Z,14.92
2018-06-02T02:05:23.095Z,14.96
2018-06-02T02:06:23.113Z,14.95
2018-06-02T02:07:23.075Z,14.98
2018-06-02T02:08:23.063Z,14.96
2018-06-02T02:09:23.059Z,14.92
2018-06-02T02:10:23.050Z,14.95
2018-06-02T02:11:23.039Z,15.01
2018-06-02T02:12:23.025Z,14.96
2018-06-02T02:13:23.025Z,14.98
2018-06-02T02:14:23.010Z,15.09
2018-06-02T02:15:23.003Z,15.10
2018-06-02T02:16:22.986Z,15.09
2018-06-02T02:17:22.976Z,15.07
2018-06-02T02:18:22.968Z,15.07
2018-06-02T02:19:22.956Z,15.07
2018-06-02T02:20:22.948Z,15.10
2018-06-02T02:21:22.940Z,15.02
2018-06-02T02:22:22.930Z,15.06
2018-06-02T02:23:22.924Z,15.02
2018-06-02T02:24:22.911Z,14.99
2018-06-02T02:25:22.901Z,15.06
2018-06-02T02:26:22.895Z,15.07
2018-06-02T02:27:22.893Z,15.07
2018-06-02T02:28:22.873Z,15.07
2018-06-02T02:29:22.862Z,15.06
2018-06-02T02:30:22.855Z,14.98
2018-06-02T02:31:22.848Z,15.09
2018-06-02T02:32:22.830Z,15.06
2018-06-02T02:33:22.829Z,15.06
2018-06-02T02:34:22.815Z,15.07
2018-06-02T02:35:22.807Z,15.07
2018-06-02T02:36:22.801Z,15.09
2018-06-02T02:37:22.781Z,15.02
2018-06-02T02:38:22.778Z,15.07
2018-06-02T02:39:22.774Z,15.03
2018-06-02T02:40:22.750Z,15.11
2018-06-02T02:41:22.747Z,15.10
2018-06-02T02:42:22.741Z,15.10
2018-06-02T02:43:22.726Z,15.06
2018-06-02T02:44:22.718Z,15.13
2018-06-02T02:45:22.711Z,14.99
2018-06-02T02:46:22.701Z,15.06
2018-06-02T02:47:22.687Z,15.07
2018-06-02T02:48:22.677Z,15.02
2018-06-02T02:49:22.667Z,15.09
2018-06-02T02:50:22.659Z,15.11
2018-06-02T02:51:22.652Z,15.14
2018-06-02T02:52:22.648Z,15.03
2018-06-02T02:53:22.635Z,15.10
2018-06-02T02:54:22.623Z,15.09
2018-06-02T02:55:22.611Z,15.09
2018-06-02T02:56:22.597Z,15.11
2018-06-02T02:57:22.598Z,15.02
2018-06-02T02:58:22.582Z,15.16
2018-06-02T02:59:22.574Z,15.14
2018-06-02T03:00:22.572Z,15.17
2018-06-02T03:01:22.575Z,15.14
2018-06-02T03:02:22.544Z,15.17
2018-06-02T03:03:22.541Z,15.16
2018-06-02T03:04:22.522Z,15.17
2018-06-02T03:05:22.520Z,15.16
2018-06-02T03:06:22.506Z,15.19
2018-06-02T03:07:22.492Z,15.16
2018-06-02T03:08:22.487Z,15.14
2018-06-02T03:09:22.473Z,15.14
2018-06-02T03:10:22.470Z,15.06
2018-06-02T03:11:22.450Z,15.13
2018-06-02T03:12:22.456Z,15.09
2018-06-02T03:13:22.439Z,15.03
2018-06-02T03:14:22.438Z,15.11
2018-06-02T03:15:22.417Z,15.10
2018-06-02T03:16:22.403Z,15.07
2018-06-02T03:17:22.401Z,15.14
2018-06-02T03:18:22.391Z,15.11
2018-06-02T03:19:22.379Z,15.02
2018-06-02T03:20:22.370Z,15.07
2018-06-02T03:21:22.356Z,15.03
2018-06-02T03:22:22.355Z,15.13
2018-06-02T03:23:22.338Z,15.19
2018-06-02T03:24:22.330Z,15.19
2018-06-02T03:25:22.318Z,15.11
2018-06-02T03:26:22.313Z,15.20
2018-06-02T03:27:22.308Z,15.14
2018-06-02T03:28:22.293Z,15.17
2018-06-02T03:29:22.285Z,15.17
2018-06-02T03:30:22.270Z,15.11
2018-06-02T03:31:22.264Z,15.16
2018-06-02T03:32:22.250Z,15.21
2018-06-02T03:33:22.240Z,15.21
2018-06-02T03:34:22.234Z,15.16
2018-06-02T03:35:22.224Z,15.11
2018-06-02T03:36:22.215Z,15.16
2018-06-02T03:37:22.207Z,15.17
2018-06-02T03:38:22.192Z,15.17
2018-06-02T03:39:22.181Z,15.23
2018-06-02T03:40:22.177Z,15.14
2018-06-02T03:41:22.167Z,15.14
2018-06-02T03:42:22.157Z,15.14
2018-06-02T03:43:22.142Z,15.16
2018-06-02T03:44:22.135Z,15.19
2018-06-02T03:45:22.126Z,15.20
2018-06-02T03:46:22.120Z,15.17
2018-06-02T03:47:22.109Z,15.19
2018-06-02T03:48:22.096Z,15.17
2018-06-02T03:49:22.088Z,15.14
2018-06-02T03:50:22.078Z,15.10
2018-06-02T03:51:22.065Z,15.11
2018-06-02T03:52:22.055Z,15.03
2018-06-02T03:53:22.047Z,15.02
2018-06-02T03:54:22.043Z,15.03
2018-06-02T03:55:22.035Z,15.06
2018-06-02T03:56:22.024Z,15.09
2018-06-02T03:57:22.007Z,15.03
2018-06-02T03:58:22.001Z,15.03
2018-06-02T03:59:21.989Z,15.02
2018-06-02T04:00:21.980Z,15.03
2018-06-02T04:01:21.968Z,14.99
2018-06-02T04:02:21.964Z,14.94
2018-06-02T04:03:21.950Z,15.02
2018-06-02T04:04:21.951Z,15.07
2018-06-02T04:05:21.935Z,15.01
2018-06-02T04:06:21.921Z,14.96
2018-06-02T04:07:21.986Z,15.06
2018-06-02T04:08:21.906Z,15.06
2018-06-02T04:09:21.909Z,15.01
2018-06-02T04:10:21.885Z,15.06
2018-06-02T04:11:21.876Z,15.03
2018-06-02T04:12:21.862Z,15.03
2018-06-02T04:13:21.848Z,15.11
2018-06-02T04:14:21.850Z,15.06
2018-06-02T04:15:21.835Z,15.07
2018-06-02T04:16:21.835Z,15.03
2018-06-02T04:17:21.820Z,14.99
2018-06-02T04:18:21.807Z,15.11
2018-06-02T04:19:21.797Z,15.09
2018-06-02T04:20:21.792Z,15.13
2018-06-02T04:21:21.775Z,15.03
2018-06-02T04:22:21.767Z,15.10
2018-06-02T04:23:21.759Z,15.14
2018-06-02T04:24:21.746Z,15.03
2018-06-02T04:25:21.736Z,15.06
2018-06-02T04:26:21.728Z,15.07
2018-06-02T04:27:21.721Z,15.02
2018-06-02T04:28:21.710Z,15.10
2018-06-02T04:29:21.697Z,15.06
2018-06-02T04:30:21.688Z,15.07
2018-06-02T04:31:21.680Z,15.09
2018-06-02T04:32:21.671Z,14.98
2018-06-02T04:33:21.661Z,15.06
2018-06-02T04:34:21.657Z,15.06
2018-06-02T04:35:21.647Z,15.03
2018-06-02T04:36:21.637Z,14.95
2018-06-02T04:37:21.620Z,15.03
2018-06-02T04:38:21.607Z,14.95
2018-06-02T04:39:21.599Z,15.11
2018-06-02T04:40:21.591Z,15.02
2018-06-02T04:41:21.584Z,15.06
2018-06-02T04:42:21.575Z,15.10
2018-06-02T04:43:21.559Z,15.02
2018-06-02T04:44:21.556Z,15.10
2018-06-02T04:45:21.543Z,15.11
2018-06-02T04:46:21.534Z,15.14
2018-06-02T04:47:21.525Z,15.11
2018-06-02T04:48:21.516Z,15.03
2018-06-02T04:49:21.505Z,15.06
2018-06-02T04:50:21.495Z,15.09
2018-06-02T04:51:21.480Z,15.13
2018-06-02T04:52:21.474Z,15.09
2018-06-02T04:53:21.463Z,15.13
2018-06-02T04:54:21.452Z,15.01
2018-06-02T04:55:21.446Z,14.99
2018-06-02T04:56:21.440Z,14.96
2018-06-02T04:57:21.425Z,15.06
2018-06-02T04:58:21.418Z,15.06
2018-06-02T04:59:21.405Z,15.01
2018-06-02T05:00:21.393Z,15.09
2018-06-02T05:01:21.383Z,15.07
2018-06-02T05:02:21.377Z,15.06
2018-06-02T05:03:21.364Z,15.02
2018-06-02T05:04:21.374Z,15.10
2018-06-02T05:05:21.350Z,15.13
2018-06-02T05:06:21.340Z,15.14
2018-06-02T05:07:21.327Z,15.16
2018-06-02T05:08:21.319Z,15.14
2018-06-02T05:09:21.308Z,15.20
2018-06-02T05:10:21.297Z,15.19
2018-06-02T05:11:21.291Z,15.19
2018-06-02T05:12:21.280Z,15.13
2018-06-02T05:13:21.272Z,15.19
2018-06-02T05:14:21.261Z,15.31
2018-06-02T05:15:21.254Z,15.21
2018-06-02T05:16:21.242Z,15.27
2018-06-02T05:17:21.236Z,15.17
2018-06-02T05:18:21.226Z,15.23
2018-06-02T05:19:21.214Z,15.27
2018-06-02T05:20:21.205Z,15.21
2018-06-02T05:21:21.189Z,15.27
2018-06-02T05:22:21.180Z,15.34
2018-06-02T05:23:21.189Z,15.41
2018-06-02T05:24:21.169Z,15.41
2018-06-02T05:25:21.157Z,15.47
2018-06-02T05:26:21.149Z,15.46
2018-06-02T05:27:21.132Z,15.36
2018-06-02T05:28:21.127Z,15.51
2018-06-02T05:29:21.116Z,15.50
2018-06-02T05:30:21.102Z,15.51
2018-06-02T05:31:21.100Z,15.54
2018-06-02T05:32:21.088Z,15.54
2018-06-02T05:33:21.078Z,15.59
2018-06-02T05:34:21.065Z,15.56
2018-06-02T05:35:21.102Z,15.65
2018-06-02T05:36:21.050Z,15.60
2018-06-02T05:37:21.035Z,15.53
2018-06-02T05:38:21.025Z,15.64
2018-06-02T05:39:21.019Z,15.67
2018-06-02T05:40:21.011Z,15.67
2018-06-02T05:41:21.000Z,15.64
2018-06-02T05:42:20.988Z,15.60
2018-06-02T05:43:20.981Z,15.57
2018-06-02T05:44:20.968Z,15.62
2018-06-02T05:45:20.965Z,15.65
2018-06-02T05:46:20.956Z,15.62
2018-06-02T05:47:20.942Z,15.68
2018-06-02T05:48:20.970Z,15.71
2018-06-02T05:49:20.925Z,15.67
2018-06-02T05:50:20.919Z,15.60
2018-06-02T05:51:20.907Z,15.59
2018-06-02T05:52:20.893Z,15.64
2018-06-02T05:53:20.888Z,15.60
2018-06-02T05:54:20.881Z,15.64
2018-06-02T05:55:20.866Z,15.65
2018-06-02T05:56:20.852Z,15.67
2018-06-02T05:57:20.850Z,15.60
2018-06-02T05:58:20.841Z,15.57
2018-06-02T05:59:20.829Z,15.68
2018-06-02T06:00:20.826Z,15.62
2018-06-02T06:01:20.813Z,15.65
2018-06-02T06:02:20.802Z,15.76
2018-06-02T06:03:20.791Z,15.86
2018-06-02T06:04:20.787Z,15.84
2018-06-02T06:05:20.771Z,15.90
2018-06-02T06:06:20.760Z,15.93
2018-06-02T06:07:20.749Z,15.93
2018-06-02T06:08:20.743Z,15.97
2018-06-02T06:09:20.739Z,16.05
2018-06-02T06:10:20.725Z,16.05
2018-06-02T06:11:20.717Z,16.04
2018-06-02T06:12:20.703Z,16.23
2018-06-02T06:13:20.699Z,16.38
2018-06-02T06:14:20.687Z,16.39
2018-06-02T06:15:20.677Z,16.48
2018-06-02T06:16:20.668Z,16.56
2018-06-02T06:17:20.658Z,16.50
2018-06-02T06:18:20.658Z,16.46
2018-06-02T06:19:20.638Z,16.41
2018-06-02T06:20:20.628Z,16.41
2018-06-02T06:21:20.621Z,16.48
2018-06-02T06:22:20.625Z,16.58
2018-06-02T06:23:20.603Z,16.60
2018-06-02T06:24:20.595Z,16.75
2018-06-02T06:25:20.584Z,16.88
2018-06-02T06:26:20.572Z,16.94
2018-06-02T06:27:20.567Z,16.97
2018-06-02T06:28:20.563Z,17.06
2018-06-02T06:29:20.551Z,17.21
2018-06-02T06:30:20.537Z,17.25
2018-06-02T06:31:20.532Z,17.31
2018-06-02T06:32:20.531Z,17.44
2018-06-02T06:33:20.513Z,17.41
2018-06-02T06:34:20.503Z,17.49
2018-06-02T06:35:20.500Z,17.63
2018-06-02T06:36:20.486Z,17.66
2018-06-02T06:37:20.475Z,17.74
2018-06-02T06:38:20.465Z,17.77
2018-06-02T06:39:20.462Z,17.86
2018-06-02T06:40:20.446Z,17.93
2018-06-02T06:41:20.437Z,18.10
2018-06-02T06:42:20.435Z,18.11
2018-06-02T06:43:20.420Z,18.05
2018-06-02T06:44:20.419Z,18.10
2018-06-02T06:45:20.405Z,18.17
2018-06-02T06:46:20.399Z,18.17
2018-06-02T06:47:20.389Z,18.29
2018-06-02T06:48:20.382Z,18.29
2018-06-02T06:49:20.371Z,18.39
2018-06-02T06:50:20.368Z,18.41
2018-06-02T06:51:20.358Z,18.52
2018-06-02T06:52:20.344Z,18.62
2018-06-02T06:53:20.347Z,18.66
2018-06-02T06:54:20.336Z,18.58
2018-06-02T06:55:20.322Z,18.69
2018-06-02T06:56:20.311Z,18.75
2018-06-02T06:57:20.317Z,18.67
2018-06-02T06:58:20.299Z,18.67
2018-06-02T06:59:20.289Z,18.65
2018-06-02T07:00:20.287Z,18.75
2018-06-02T07:01:20.269Z,18.76
2018-06-02T07:02:20.262Z,18.80
2018-06-02T07:03:20.257Z,18.88
2018-06-02T07:04:20.250Z,18.87
2018-06-02T07:05:20.244Z,18.88
2018-06-02T07:06:20.230Z,18.92
2018-06-02T07:07:20.224Z,18.99
2018-06-02T07:08:20.217Z,18.98
2018-06-02T07:09:20.210Z,19.06
2018-06-02T07:10:20.202Z,19.10
2018-06-02T07:11:20.190Z,18.91
2018-06-02T07:12:20.183Z,18.98
2018-06-02T07:13:20.179Z,18.98
2018-06-02T07:14:20.167Z,18.94
2018-06-02T07:15:20.161Z,19.06
2018-06-02T07:16:20.151Z,19.04
2018-06-02T07:17:20.141Z,19.11
2018-06-02T07:18:20.137Z,19.13
2018-06-02T07:19:20.135Z,19.18
2018-06-02T07:20:20.118Z,19.19
2018-06-02T07:21:20.115Z,19.19
2018-06-02T07:22:20.106Z,19.32
2018-06-02T07:23:20.100Z,19.26
2018-06-02T07:24:20.089Z,19.39
2018-06-02T07:25:20.080Z,19.41
2018-06-02T07:26:20.076Z,19.43
2018-06-02T07:27:20.075Z,19.46
2018-06-02T07:28:20.055Z,19.50
2018-06-02T07:29:20.052Z,19.68
2018-06-02T07:30:20.041Z,19.65
2018-06-02T07:31:20.037Z,19.76
2018-06-02T07:32:20.023Z,19.71
2018-06-02T07:33:20.015Z,19.73
2018-06-02T07:34:20.007Z,19.78
2018-06-02T07:35:20.001Z,19.80
2018-06-02T07:36:19.998Z,19.78
2018-06-02T07:37:19.988Z,19.86
2018-06-02T07:38:19.979Z,19.86
2018-06-02T07:39:19.973Z,19.91
2018-06-02T07:40:19.966Z,19.92
2018-06-02T07:41:19.958Z,19.99
2018-06-02T07:42:19.952Z,19.94
2018-06-02T07:43:19.942Z,19.94
2018-06-02T07:44:19.959Z,20.01
2018-06-02T07:45:19.929Z,19.99
2018-06-02T07:46:19.924Z,19.98
2018-06-02T07:47:19.913Z,20.05
2018-06-02T07:48:19.905Z,20.13
2018-06-02T07:49:19.899Z,20.17
2018-06-02T07:50:19.896Z,20.32
2018-06-02T07:51:19.884Z,20.39
2018-06-02T07:52:19.869Z,20.39
2018-06-02T07:53:19.869Z,20.57
2018-06-02T07:54:19.861Z,20.59
2018-06-02T07:55:19.853Z,20.62
2018-06-02T07:56:19.841Z,20.70
2018-06-02T07:57:19.839Z,20.77
2018-06-02T07:58:19.835Z,20.67
2018-06-02T07:59:19.827Z,20.77
2018-06-02T08:00:19.823Z,20.70
2018-06-02T08:01:19.817Z,20.70
2018-06-02T08:02:19.815Z,20.70
2018-06-02T08:03:19.802Z,20.74
2018-06-02T08:04:19.794Z,20.87
2018-06-02T08:05:19.788Z,20.70
2018-06-02T08:06:19.782Z,20.76
2018-06-02T08:07:19.776Z,20.73
2018-06-02T08:08:19.785Z,20.66
2018-06-02T08:09:19.759Z,20.64
2018-06-02T08:10:19.754Z,20.61
2018-06-02T08:11:19.741Z,20.36
2018-06-02T08:12:19.738Z,20.32
2018-06-02T08:13:19.727Z,20.23
2018-06-02T08:14:19.719Z,20.32
2018-06-02T08:15:19.715Z,20.28
2018-06-02T08:16:19.710Z,20.18
2018-06-02T08:17:19.703Z,20.13
2018-06-02T08:18:19.692Z,20.23
2018-06-02T08:19:19.687Z,20.41
2018-06-02T08:20:19.681Z,20.42
2018-06-02T08:21:19.674Z,20.38
2018-06-02T08:22:19.663Z,20.58
2018-06-02T08:23:19.669Z,20.39
2018-06-02T08:24:19.647Z,20.33
2018-06-02T08:25:19.644Z,20.11
2018-06-02T08:26:19.636Z,19.94
2018-06-02T08:27:19.634Z,19.88
2018-06-02T08:28:19.626Z,19.68
2018-06-02T08:29:19.616Z,19.80
2018-06-02T08:30:19.609Z,19.59
2018-06-02T08:31:19.610Z,19.62
2018-06-02T08:32:19.599Z,19.58
2018-06-02T08:33:19.618Z,19.59
2018-06-02T08:34:19.583Z,19.63
2018-06-02T08:35:19.576Z,19.76
2018-06-02T08:36:19.566Z,19.91
2018-06-02T08:37:19.557Z,20.02
2018-06-02T08:38:19.555Z,20.14
2018-06-02T08:39:19.547Z,20.11
2018-06-02T08:40:19.542Z,20.17
2018-06-02T08:41:19.534Z,20.26
2018-06-02T08:42:19.525Z,20.18
2018-06-02T08:43:19.514Z,20.21
2018-06-02T08:44:19.512Z,20.18
2018-06-02T08:45:19.502Z,20.11
2018-06-02T08:46:19.538Z,20.31
2018-06-02T08:47:19.484Z,20.39
2018-06-02T08:48:19.477Z,20.55
2018-06-02T08:49:19.473Z,20.69
2018-06-02T08:50:19.469Z,20.95
2018-06-02T08:51:19.459Z,20.89
2018-06-02T08:52:19.454Z,21.01
2018-06-02T08:53:19.446Z,20.95
2018-06-02T08:54:19.461Z,21.04
2018-06-02T08:55:19.440Z,21.10
2018-06-02T08:56:19.431Z,21.10
2018-06-02T08:57:19.413Z,21.13
2018-06-02T08:58:19.411Z,21.40
2018-06-02T08:59:19.399Z,21.32
2018-06-02T09:00:19.397Z,21.43
2018-06-02T09:01:19.394Z,21.62
2018-06-02T09:02:19.381Z,21.64
2018-06-02T09:03:19.375Z,21.68
2018-06-02T09:04:19.373Z,21.75
2018-06-02T09:05:19.417Z,21.52
2018-06-02T09:06:19.356Z,21.50
2018-06-02T09:07:19.350Z,21.32
2018-06-02T09:08:19.338Z,21.07
2018-06-02T09:09:19.337Z,20.85
2018-06-02T09:10:19.331Z,20.99
2018-06-02T09:11:19.322Z,21.06
2018-06-02T09:12:19.317Z,21.10
2018-06-02T09:13:19.311Z,21.16
2018-06-02T09:14:19.307Z,21.12
2018-06-02T09:15:19.295Z,21.12
2018-06-02T09:16:19.291Z,21.09
2018-06-02T09:17:19.285Z,21.13
2018-06-02T09:18:19.273Z,21.19
2018-06-02T09:19:19.269Z,21.21
2018-06-02T09:20:19.261Z,21.24
2018-06-02T09:21:19.256Z,21.22
2018-06-02T09:22:19.254Z,21.32
2018-06-02T09:23:19.251Z,21.22
2018-06-02T09:24:19.237Z,21.32
2018-06-02T09:25:19.227Z,21.28
2018-06-02T09:26:19.223Z,21.37
2018-06-02T09:27:19.213Z,21.38
2018-06-02T09:28:19.210Z,21.32
2018-06-02T09:29:19.206Z,21.38
2018-06-02T09:30:19.206Z,21.35
2018-06-02T09:31:19.197Z,21.29
2018-06-02T09:32:19.181Z,21.32
2018-06-02T09:33:19.180Z,21.35
2018-06-02T09:34:19.176Z,21.31
2018-06-02T09:35:19.213Z,21.44
2018-06-02T09:36:19.159Z,21.38
2018-06-02T09:37:19.155Z,21.35
2018-06-02T09:38:19.146Z,21.44
2018-06-02T09:39:19.133Z,21.29
2018-06-02T09:40:19.137Z,21.42
2018-06-02T09:41:19.125Z,21.24
2018-06-02T09:42:19.117Z,21.13
2018-06-02T09:43:19.113Z,21.19
2018-06-02T09:44:19.104Z,21.27
2018-06-02T09:45:19.098Z,21.32
2018-06-02T09:46:19.094Z,21.32
2018-06-02T09:47:19.088Z,21.27
2018-06-02T09:48:19.084Z,21.24
2018-06-02T09:49:19.075Z,21.27
2018-06-02T09:50:19.066Z,21.17
2018-06-02T09:51:19.065Z,21.14
2018-06-02T09:52:19.057Z,21.03
2018-06-02T09:53:19.049Z,21.03
2018-06-02T09:54:19.043Z,20.92
2018-06-02T09:55:19.039Z,20.98
2018-06-02T09:56:19.033Z,21.06
2018-06-02T09:57:19.024Z,21.14
2018-06-02T09:58:19.022Z,21.24
2018-06-02T09:59:19.019Z,21.29
2018-06-02T10:00:19.000Z,21.27
2018-06-02T10:01:18.997Z,21.35
2018-06-02T10:02:18.985Z,21.50
2018-06-02T10:03:18.985Z,21.47
2018-06-02T10:04:18.978Z,21.52
2018-06-02T10:05:18.974Z,21.71
2018-06-02T10:06:18.966Z,21.62
2018-06-02T10:07:18.959Z,21.83
2018-06-02T10:08:18.952Z,21.88
2018-06-02T10:09:18.945Z,21.92
2018-06-02T10:10:18.937Z,21.94
2018-06-02T10:11:18.934Z,21.91
2018-06-02T10:12:18.930Z,21.91
2018-06-02T10:13:18.922Z,21.86
2018-06-02T10:14:18.912Z,21.79
2018-06-02T10:15:18.912Z,21.88
2018-06-02T10:16:18.897Z,21.86
2018-06-02T10:17:18.889Z,21.88
2018-06-02T10:18:18.888Z,21.94
2018-06-02T10:19:18.879Z,21.91
2018-06-02T10:20:18.875Z,21.90
2018-06-02T10:21:18.866Z,22.05
2018-06-02T10:22:18.861Z,22.09
2018-06-02T10:23:18.852Z,22.21
2018-06-02T10:24:18.850Z,22.07
2018-06-02T10:25:18.846Z,21.90
2018-06-02T10:26:18.838Z,21.94
2018-06-02T10:27:18.842Z,21.88
2018-06-02T10:28:18.823Z,21.82
2018-06-02T10:29:18.820Z,21.83
2018-06-02T10:30:18.810Z,22.03
2018-06-02T10:31:18.806Z,22.03
2018-06-02T10:32:18.801Z,22.15
2018-06-02T10:33:18.792Z,22.07
2018-06-02T10:34:18.783Z,22.22
2018-06-02T10:35:18.777Z,22.18
2018-06-02T10:36:18.776Z,22.36
2018-06-02T10:37:18.764Z,22.35
2018-06-02T10:38:18.759Z,22.12
2018-06-02T10:39:18.751Z,22.35
2018-06-02T10:40:18.748Z,22.33
2018-06-02T10:41:18.742Z,22.36
2018-06-02T10:42:18.734Z,22.35
2018-06-02T10:43:18.734Z,22.37
2018-06-02T10:44:18.724Z,22.47
2018-06-02T10:45:18.720Z,22.57
2018-06-02T10:46:18.712Z,22.51
2018-06-02T10:47:18.706Z,22.58
2018-06-02T10:48:18.697Z,22.55
2018-06-02T10:49:18.689Z,22.61
2018-06-02T10:50:18.688Z,22.61
2018-06-02T10:51:18.737Z,22.73
2018-06-02T10:52:18.678Z,22.67
2018-06-02T10:53:18.670Z,22.77
2018-06-02T10:54:18.662Z,22.79
2018-06-02T10:55:18.658Z,22.90
2018-06-02T10:56:18.649Z,22.95
2018-06-02T10:57:18.641Z,23.04
2018-06-02T10:58:18.640Z,23.13
2018-06-02T10:59:18.632Z,23.19
2018-06-02T11:00:18.628Z,23.27
2018-06-02T11:01:18.623Z,23.31
2018-06-02T11:02:18.618Z,23.35
2018-06-02T11:03:18.606Z,23.46
2018-06-02T11:04:18.605Z,23.43
2018-06-02T11:05:18.606Z,23.38
2018-06-02T11:06:18.594Z,23.33
2018-06-02T11:07:18.587Z,23.35
2018-06-02T11:08:18.581Z,23.36
2018-06-02T11:09:18.570Z,23.46
2018-06-02T11:10:18.565Z,23.38
2018-06-02T11:11:18.563Z,23.19
2018-06-02T11:12:18.557Z,23.04
2018-06-02T11:13:18.550Z,22.82
2018-06-02T11:14:18.551Z,22.67
2018-06-02T11:15:18.544Z,22.62
2018-06-02T11:16:18.535Z,22.52
2018-06-02T11:17:18.527Z,22.39
2018-06-02T11:18:18.526Z,22.17
2018-06-02T11:19:18.520Z,21.90
2018-06-02T11:20:18.515Z,22.15
2018-06-02T11:21:18.506Z,22.06
2018-06-02T11:22:18.498Z,22.02
2018-06-02T11:23:18.495Z,22.24
2018-06-02T11:24:18.490Z,22.37
2018-06-02T11:25:18.488Z,22.18
2018-06-02T11:26:18.475Z,22.10
2018-06-02T11:27:18.470Z,22.20
2018-06-02T11:28:18.468Z,22.12
2018-06-02T11:29:18.466Z,22.10
2018-06-02T11:30:18.453Z,21.96
2018-06-02T11:31:18.446Z,21.91
2018-06-02T11:32:18.440Z,21.98
2018-06-02T11:33:18.436Z,21.92
2018-06-02T11:34:18.434Z,22.14
2018-06-02T11:35:18.422Z,22.31
2018-06-02T11:36:18.417Z,22.47
2018-06-02T11:37:18.417Z,22.57
2018-06-02T11:38:18.407Z,22.70
2018-06-02T11:39:18.395Z,22.97
2018-06-02T11:40:18.390Z,23.02
2018-06-02T11:41:18.387Z,23.10
2018-06-02T11:42:18.380Z,23.16
2018-06-02T11:43:18.380Z,23.25
2018-06-02T11:44:18.374Z,23.43
2018-06-02T11:45:18.366Z,23.55
2018-06-02T11:46:18.362Z,23.69
2018-06-02T11:47:18.357Z,23.80
2018-06-02T11:48:18.348Z,23.88
2018-06-02T11:49:18.344Z,23.94
2018-06-02T11:50:18.336Z,23.88
2018-06-02T11:51:18.326Z,23.91
2018-06-02T11:52:18.323Z,23.98
2018-06-02T11:53:18.322Z,24.06
2018-06-02T11:54:18.315Z,23.98
2018-06-02T11:55:18.309Z,24.00
2018-06-02T11:56:18.306Z,23.95
2018-06-02T11:57:18.299Z,24.09
2018-06-02T11:58:18.295Z,24.24
2018-06-02T11:59:18.294Z,24.20
2018-06-02T12:00:18.278Z,24.10
2018-06-02T12:01:18.280Z,24.12
2018-06-02T12:02:18.271Z,24.18
2018-06-02T12:03:18.264Z,24.15
2018-06-02T12:04:18.263Z,23.83
2018-06-02T12:05:18.258Z,23.57
2018-06-02T12:06:18.255Z,23.23
2018-06-02T12:07:18.245Z,23.02
2018-06-02T12:08:18.239Z,22.65
2018-06-02T12:09:18.234Z,22.52
2018-06-02T12:10:18.233Z,22.42
2018-06-02T12:11:18.223Z,22.30
2018-06-02T12:12:18.221Z,22.17
2018-06-02T12:13:18.214Z,22.12
2018-06-02T12:14:18.213Z,22.02
2018-06-02T12:15:18.205Z,21.90
2018-06-02T12:16:18.194Z,21.84
2018-06-02T12:17:18.191Z,21.75
2018-06-02T12:18:18.190Z,21.68
2018-06-02T12:19:18.177Z,21.62
2018-06-02T12:20:18.170Z,21.56
2018-06-02T12:21:18.166Z,21.53
2018-06-02T12:22:18.158Z,21.54
2018-06-02T12:23:18.160Z,21.46
2018-06-02T12:24:18.149Z,21.40
2018-06-02T12:25:18.143Z,21.38
2018-06-02T12:26:18.141Z,21.43
2018-06-02T12:27:18.130Z,21.32
2018-06-02T12:28:18.160Z,21.42
2018-06-02T12:29:18.121Z,21.44
2018-06-02T12:30:18.117Z,21.53
2018-06-02T12:31:18.115Z,21.54
2018-06-02T12:32:18.102Z,21.74
2018-06-02T12:33:18.090Z,21.88
2018-06-02T12:34:18.091Z,21.96
2018-06-02T12:35:18.081Z,22.02
2018-06-02T12:36:18.079Z,22.14
2018-06-02T12:37:18.069Z,22.37
2018-06-02T12:38:18.063Z,22.65
2018-06-02T12:39:18.064Z,22.90
2018-06-02T12:40:18.102Z,23.12
2018-06-02T12:41:18.051Z,23.27
2018-06-02T12:42:18.038Z,23.60
2018-06-02T12:43:18.038Z,23.69
2018-06-02T12:44:18.026Z,23.83
2018-06-02T12:45:18.028Z,23.98
2018-06-02T12:46:18.014Z,24.09
2018-06-02T12:47:18.012Z,24.25
2018-06-02T12:48:18.007Z,24.30
2018-06-02T12:49:18.003Z,24.39
2018-06-02T12:50:17.996Z,24.21
2018-06-02T12:51:17.989Z,24.37
2018-06-02T12:52:17.983Z,24.32